Time,TemperatureF,DewpointF,PressureIn,WindDirection,WindDirectionDegrees,WindSpeedMPH,WindSpeedGustMPH,Humidity,HourlyPrecipIn,Conditions,Clouds,dailyrainin,SoftwareType,DateUTC
2013-01-01 00:00:00,63.0,-99.9,29.92,SSE,160,6.0,7.0,-999,-99.99,,,-99.99,,2013-01-01 06:00:00,
2013-01-01 00:33:00,63.0,-99.9,29.92,SSE,160,6.0,7.0,-999,-99.99,,,-99.99,,2013-01-01 06:33:00,
2013-01-01 00:43:00,63.0,-99.9,29.92,SSE,160,6.0,7.0,-999,-99.99,,,-99.99,,2013-01-01 06:43:00,
2013-01-01 00:52:00,63.0,-99.9,29.92,SSE,160,6.0,7.0,-999,-99.99,,,-99.99,,2013-01-01 06:52:00,
2013-01-01 01:00:00,63.0,-99.9,29.92,South,182,6.0,7.0,-999,-99.99,,,-99.99,,2013-01-01 07:00:00,
2013-01-01 01:32:00,63.0,-99.9,29.92,South,182,6.0,7.0,-999,-99.99,,,-99.99,,2013-01-01 07:32:00,
2013-01-01 01:43:00,63.0,-99.9,29.92,South,182,6.0,7.0,-999,-99.99,,,-99.99,,2013-01-01 07:43:00,
2013-01-01 01:53:00,63.0,-99.9,29.92,South,182,6.0,7.0,-999,-99.99,,,-99.99,,2013-01-01 07:53:00,
2013-01-01 02:00:00,65.0,-99.9,29.92,South,183,5.0,6.0,-999,-99.99,,,-99.99,,2013-01-01 08:00:00,
2013-01-01 02:32:00,65.0,-99.9,29.92,South,183,5.0,6.0,-999,-99.99,,,-99.99,,2013-01-01 08:32:00,
2013-01-01 02:42:00,65.0,-99.9,29.92,South,183,5.0,6.0,-999,-99.99,,,-99.99,,2013-01-01 08:42:00,
2013-01-01 02:53:00,65.0,-99.9,29.92,South,183,5.0,6.0,-999,-99.99,,,-99.99,,2013-01-01 08:53:00,
2013-01-01 03:00:00,64.0,-99.9,29.91,WSW,240,4.0,4.0,-999,-99.99,,,-99.99,,2013-01-01 09:00:00,
2013-01-01 03:32:00,64.0,-99.9,29.91,WSW,240,4.0,4.0,-999,-99.99,,,-99.99,,2013-01-01 09:32:00,
2013-01-01 03:43:00,64.0,-99.9,29.91,WSW,240,4.0,4.0,-999,-99.99,,,-99.99,,2013-01-01 09:43:00,
2013-01-01 03:53:00,64.0,-99.9,29.91,WSW,240,4.0,4.0,-999,-99.99,,,-99.99,,2013-01-01 09:53:00,
2013-01-01 04:00:00,65.0,-99.9,29.87,South,173,4.0,5.0,-999,-99.99,,,-99.99,,2013-01-01 10:00:00,
2013-01-01 04:33:00,65.0,-99.9,29.87,South,173,4.0,5.0,-999,-99.99,,,-99.99,,2013-01-01 10:33:00,
2013-01-01 04:43:00,65.0,-99.9,29.87,South,173,4.0,5.0,-999,-99.99,,,-99.99,,2013-01-01 10:43:00,
2013-01-01 04:53:00,65.0,-99.9,29.87,South,173,4.0,5.0,-999,-99.99,,,-99.99,,2013-01-01 10:53:00,
2013-01-01 05:00:00,63.0,-99.9,29.87,ESE,121,4.0,6.0,-999,-99.99,,,-99.99,,2013-01-01 11:00:00,
2013-01-01 05:33:00,63.0,-99.9,29.87,ESE,121,4.0,6.0,-999,-99.99,,,-99.99,,2013-01-01 11:33:00,
2013-01-01 05:43:00,63.0,-99.9,29.87,ESE,121,4.0,6.0,-999,-99.99,,,-99.99,,2013-01-01 11:43:00,
2013-01-01 05:53:00,63.0,-99.9,29.87,ESE,121,4.0,6.0,-999,-99.99,,,-99.99,,2013-01-01 11:53:00,
2013-01-01 06:00:00,64.0,-99.9,29.90,NNW,337,8.0,8.0,-999,-99.99,,,-99.99,,2013-01-01 12:00:00,
2013-01-01 06:33:00,64.0,-99.9,29.90,NNW,337,8.0,8.0,-999,-99.99,,,-99.99,,2013-01-01 12:33:00,
2013-01-01 06:43:00,64.0,-99.9,29.90,NNW,337,8.0,8.0,-999,-99.99,,,-99.99,,2013-01-01 12:43:00,
2013-01-01 06:53:00,64.0,-99.9,29.90,NNW,337,8.0,8.0,-999,-99.99,,,-99.99,,2013-01-01 12:53:00,
2013-01-01 07:00:00,62.0,-99.9,29.91,NNE,12,2.0,3.0,-999,-99.99,,,-99.99,,2013-01-01 13:00:00,
2013-01-01 07:33:00,62.0,-99.9,29.91,NNE,12,2.0,3.0,-999,-99.99,,,-99.99,,2013-01-01 13:33:00,
2013-01-01 07:43:00,62.0,-99.9,29.91,NNE,12,2.0,3.0,-999,-99.99,,,-99.99,,2013-01-01 13:43:00,
2013-01-01 07:53:00,62.0,-99.9,29.91,NNE,12,2.0,3.0,-999,-99.99,,,-99.99,,2013-01-01 13:53:00,
2013-01-01 08:00:00,58.0,-99.9,29.96,North,8,22.0,28.0,-999,-99.99,,,-99.99,,2013-01-01 14:00:00,
2013-01-01 08:33:00,58.0,-99.9,29.96,North,8,22.0,28.0,-999,-99.99,,,-99.99,,2013-01-01 14:33:00,
2013-01-01 08:43:00,58.0,-99.9,29.96,North,8,22.0,28.0,-999,-99.99,,,-99.99,,2013-01-01 14:43:00,
2013-01-01 08:53:00,58.0,-99.9,29.96,North,8,22.0,28.0,-999,-99.99,,,-99.99,,2013-01-01 14:53:00,
2013-01-01 10:00:00,55.0,-99.9,30.05,North,351,24.0,29.0,-999,-99.99,,,-99.99,,2013-01-01 16:00:00,
2013-01-01 10:33:00,55.0,-99.9,30.05,North,351,24.0,29.0,-999,-99.99,,,-99.99,,2013-01-01 16:33:00,
2013-01-01 10:43:00,55.0,-99.9,30.05,North,351,24.0,29.0,-999,-99.99,,,-99.99,,2013-01-01 16:43:00,
2013-01-01 10:53:00,55.0,-99.9,30.05,North,351,24.0,29.0,-999,-99.99,,,-99.99,,2013-01-01 16:53:00,
2013-01-01 11:00:00,55.0,-99.9,30.07,North,3,23.0,28.0,-999,-99.99,,,-99.99,,2013-01-01 17:00:00,
2013-01-01 11:33:00,55.0,-99.9,30.07,North,3,23.0,28.0,-999,-99.99,,,-99.99,,2013-01-01 17:33:00,
2013-01-01 11:43:00,55.0,-99.9,30.07,North,3,23.0,28.0,-999,-99.99,,,-99.99,,2013-01-01 17:43:00,
2013-01-01 11:53:00,55.0,-99.9,30.07,North,3,23.0,28.0,-999,-99.99,,,-99.99,,2013-01-01 17:53:00,
2013-01-01 12:00:00,55.0,-99.9,30.05,North,11,24.0,26.0,-999,-99.99,,,-99.99,,2013-01-01 18:00:00,
2013-01-01 12:33:00,55.0,-99.9,30.05,North,11,24.0,26.0,-999,-99.99,,,-99.99,,2013-01-01 18:33:00,
2013-01-01 12:43:00,55.0,-99.9,30.05,North,11,24.0,26.0,-999,-99.99,,,-99.99,,2013-01-01 18:43:00,
2013-01-01 12:53:00,55.0,-99.9,30.05,North,11,24.0,26.0,-999,-99.99,,,-99.99,,2013-01-01 18:53:00,
2013-01-01 13:00:00,56.0,-99.9,30.04,NNE,12,22.0,24.0,-999,-99.99,,,-99.99,,2013-01-01 19:00:00,
2013-01-01 13:33:00,56.0,-99.9,30.04,NNE,12,22.0,24.0,-999,-99.99,,,-99.99,,2013-01-01 19:33:00,
2013-01-01 13:43:00,56.0,-99.9,30.04,NNE,12,22.0,24.0,-999,-99.99,,,-99.99,,2013-01-01 19:43:00,
2013-01-01 13:53:00,56.0,-99.9,30.04,NNE,12,22.0,24.0,-999,-99.99,,,-99.99,,2013-01-01 19:53:00,
2013-01-01 14:00:00,56.0,-99.9,30.05,North,1,20.0,23.0,-999,-99.99,,,-99.99,,2013-01-01 20:00:00,
2013-01-01 14:33:00,56.0,-99.9,30.05,North,1,20.0,23.0,-999,-99.99,,,-99.99,,2013-01-01 20:33:00,
2013-01-01 14:43:00,56.0,-99.9,30.05,North,1,20.0,23.0,-999,-99.99,,,-99.99,,2013-01-01 20:43:00,
2013-01-01 14:53:00,56.0,-99.9,30.05,North,1,20.0,23.0,-999,-99.99,,,-99.99,,2013-01-01 20:53:00,
2013-01-01 15:00:00,55.0,-99.9,30.05,North,359,21.0,25.0,-999,-99.99,,,-99.99,,2013-01-01 21:00:00,
2013-01-01 15:33:00,55.0,-99.9,30.05,North,359,21.0,25.0,-999,-99.99,,,-99.99,,2013-01-01 21:33:00,
2013-01-01 15:43:00,55.0,-99.9,30.05,North,359,21.0,25.0,-999,-99.99,,,-99.99,,2013-01-01 21:43:00,
2013-01-01 15:53:00,55.0,-99.9,30.05,North,359,21.0,25.0,-999,-99.99,,,-99.99,,2013-01-01 21:53:00,
2013-01-01 16:00:00,55.0,-99.9,30.09,North,4,20.0,23.0,-999,-99.99,,,-99.99,,2013-01-01 22:00:00,
2013-01-01 16:33:00,55.0,-99.9,30.09,North,4,20.0,23.0,-999,-99.99,,,-99.99,,2013-01-01 22:33:00,
2013-01-01 16:43:00,55.0,-99.9,30.09,North,4,20.0,23.0,-999,-99.99,,,-99.99,,2013-01-01 22:43:00,
2013-01-01 16:53:00,55.0,-99.9,30.09,North,4,20.0,23.0,-999,-99.99,,,-99.99,,2013-01-01 22:53:00,
2013-01-01 17:00:00,55.0,-99.9,30.09,North,5,20.0,25.0,-999,-99.99,,,-99.99,,2013-01-01 23:00:00,
2013-01-01 17:33:00,55.0,-99.9,30.09,North,5,20.0,25.0,-999,-99.99,,,-99.99,,2013-01-01 23:33:00,
2013-01-01 17:42:00,55.0,-99.9,30.09,North,5,20.0,25.0,-999,-99.99,,,-99.99,,2013-01-01 23:42:00,
2013-01-01 17:53:00,55.0,-99.9,30.09,North,5,20.0,25.0,-999,-99.99,,,-99.99,,2013-01-01 23:53:00,
2013-01-01 18:00:00,54.0,-99.9,30.10,NNE,13,22.0,26.0,-999,-99.99,,,-99.99,,2013-01-02 00:00:00,
2013-01-01 18:33:00,54.0,-99.9,30.10,NNE,13,22.0,26.0,-999,-99.99,,,-99.99,,2013-01-02 00:33:00,
2013-01-01 18:43:00,54.0,-99.9,30.10,NNE,13,22.0,26.0,-999,-99.99,,,-99.99,,2013-01-02 00:43:00,
2013-01-01 18:53:00,54.0,-99.9,30.10,NNE,13,22.0,26.0,-999,-99.99,,,-99.99,,2013-01-02 00:53:00,
2013-01-01 19:00:00,54.0,-99.9,30.13,NNE,14,21.0,25.0,-999,-99.99,,,-99.99,,2013-01-02 01:00:00,
2013-01-01 19:33:00,54.0,-99.9,30.13,NNE,14,21.0,25.0,-999,-99.99,,,-99.99,,2013-01-02 01:33:00,
2013-01-01 19:43:00,54.0,-99.9,30.13,NNE,14,21.0,25.0,-999,-99.99,,,-99.99,,2013-01-02 01:43:00,
2013-01-01 19:53:00,54.0,-99.9,30.13,NNE,14,21.0,25.0,-999,-99.99,,,-99.99,,2013-01-02 01:53:00,
2013-01-01 21:00:00,52.0,-99.9,30.15,North,6,25.0,28.0,-999,-99.99,,,-99.99,,2013-01-02 03:00:00,
2013-01-01 21:32:00,52.0,-99.9,30.15,North,6,25.0,28.0,-999,-99.99,,,-99.99,,2013-01-02 03:32:00,
2013-01-01 21:42:00,52.0,-99.9,30.15,North,6,25.0,28.0,-999,-99.99,,,-99.99,,2013-01-02 03:42:00,
2013-01-01 21:53:00,52.0,-99.9,30.15,North,6,25.0,28.0,-999,-99.99,,,-99.99,,2013-01-02 03:53:00,
2013-01-01 22:00:00,51.0,-99.9,30.18,North,7,22.0,25.0,-999,-99.99,,,-99.99,,2013-01-02 04:00:00,
2013-01-01 22:33:00,51.0,-99.9,30.18,North,7,22.0,25.0,-999,-99.99,,,-99.99,,2013-01-02 04:33:00,
2013-01-01 22:42:00,51.0,-99.9,30.18,North,7,22.0,25.0,-999,-99.99,,,-99.99,,2013-01-02 04:42:00,
2013-01-01 22:53:00,51.0,-99.9,30.18,North,7,22.0,25.0,-999,-99.99,,,-99.99,,2013-01-02 04:53:00,
2013-01-01 23:00:00,49.0,-99.9,30.16,NNE,13,27.0,31.0,-999,-99.99,,,-99.99,,2013-01-02 05:00:00,
2013-01-01 23:33:00,49.0,-99.9,30.16,NNE,13,27.0,31.0,-999,-99.99,,,-99.99,,2013-01-02 05:33:00,
2013-01-01 23:43:00,49.0,-99.9,30.16,NNE,13,27.0,31.0,-999,-99.99,,,-99.99,,2013-01-02 05:43:00,
2013-01-01 23:53:00,49.0,-99.9,30.16,NNE,13,27.0,31.0,-999,-99.99,,,-99.99,,2013-01-02 05:53:00,